Time;durP1;ratioP1;P1;durP2;ratioP2;P2;SDS_P1;SDS_P2;PMS_P1;PMS_P2;Temp;Humidity;BMP_temperature;BMP_pressure;BME280_temperature;BME280_humidity;BME280_pressure;Samples;Min_cycle;Max_cycle;Signal;HPM_P1;HPM_P2
2021/12/04 00:01:16;;;;;;;5.05;2.25;;;4.40;99.90;;;;;;5046620;28;20018;-75
2021/12/04 00:03:42;;;;;;;2.25;1.55;;;4.40;99.90;;;;;;5057880;28;20062;-75
2021/12/04 00:06:24;;;;;;;2.92;1.80;;;4.50;99.90;;;;;;5063294;28;20028;-76
2021/12/04 00:08:50;;;;;;;2.45;2.13;;;4.50;99.90;;;;;;5046706;28;20028;-75
2021/12/04 00:11:15;;;;;;;3.13;2.38;;;4.50;99.90;;;;;;5059636;28;20419;-76
2021/12/04 00:13:41;;;;;;;1.80;1.50;;;4.50;99.90;;;;;;5016668;28;20029;-74
2021/12/04 00:16:07;;;;;;;3.72;1.70;;;4.60;99.90;;;;;;5052911;28;20473;-76
2021/12/04 00:18:33;;;;;;;3.42;2.20;;;4.50;99.90;;;;;;5047342;28;20021;-75
2021/12/04 00:20:58;;;;;;;2.78;2.08;;;4.50;99.90;;;;;;5028485;28;20032;-76
2021/12/04 00:23:24;;;;;;;2.78;1.80;;;4.40;99.90;;;;;;5059723;28;20043;-73
2021/12/04 00:25:50;;;;;;;3.75;2.20;;;4.40;99.90;;;;;;5048876;28;20022;-76
2021/12/04 00:28:15;;;;;;;2.75;2.08;;;4.40;99.90;;;;;;5033154;28;20032;-74
2021/12/04 00:30:45;;;;;;;4.80;2.88;;;4.40;99.90;;;;;;5059681;28;20029;-74
2021/12/04 00:33:23;;;;;;;3.70;3.05;;;4.30;99.90;;;;;;5063558;28;20025;-73
2021/12/04 00:35:55;;;;;;;3.03;2.38;;;4.30;99.90;;;;;;5036643;28;20556;-73
2021/12/04 00:49:09;;;;;;;4.85;3.28;;;4.30;99.90;;;;;;5061081;28;20073;-76
2021/12/04 00:51:37;;;;;;;4.15;2.75;;;4.20;99.90;;;;;;5056588;28;20433;-77
2021/12/04 00:54:05;;;;;;;5.05;3.25;;;4.20;99.90;;;;;;5065954;28;20472;-75
2021/12/04 00:56:32;;;;;;;3.88;3.20;;;4.20;99.90;;;;;;5050993;28;20032;-77
2021/12/04 00:58:58;;;;;;;3.97;2.72;;;4.20;99.90;;;;;;5033003;28;20108;-75
2021/12/04 01:01:23;;;;;;;5.07;3.42;;;4.40;99.90;;;;;;5051560;28;20025;-75
2021/12/04 01:03:49;;;;;;;6.38;3.80;;;4.70;99.90;;;;;;5049223;28;20078;-75
2021/12/04 01:06:15;;;;;;;6.18;4.07;;;4.60;99.90;;;;;;5052140;28;20179;-74
2021/12/04 01:08:40;;;;;;;5.75;3.67;;;4.60;99.90;;;;;;5046645;28;20025;-73
2021/12/04 01:11:06;;;;;;;7.82;3.28;;;4.70;99.90;;;;;;5062000;28;20044;-73
2021/12/04 01:13:33;;;;;;;5.72;3.83;;;4.40;99.90;;;;;;5062775;28;20053;-73
2021/12/04 01:15:59;;;;;;;4.20;3.47;;;4.50;99.90;;;;;;5057356;28;20043;-74
2021/12/04 01:18:25;;;;;;;4.75;3.72;;;4.40;99.90;;;;;;5056717;28;20563;-74
2021/12/04 01:20:50;;;;;;;5.65;3.97;;;4.50;99.90;;;;;;5058556;28;20074;-73
2021/12/04 01:23:16;;;;;;;4.40;3.88;;;4.30;99.90;;;;;;5061149;28;20092;-75
2021/12/04 01:25:43;;;;;;;4.68;3.60;;;4.30;99.90;;;;;;5047586;28;20021;-74
2021/12/04 01:28:09;;;;;;;6.38;3.88;;;4.30;99.90;;;;;;5039275;28;20025;-76
2021/12/04 01:30:34;;;;;;;5.60;4.10;;;4.50;99.90;;;;;;5049084;28;20388;-76
2021/12/04 01:33:00;;;;;;;4.22;3.53;;;4.30;99.90;;;;;;5056441;28;20029;-76
2021/12/04 01:35:35;;;;;;;5.35;4.68;;;4.20;99.90;;;;;;5031794;28;20469;-75
2021/12/04 01:38:01;;;;;;;5.80;3.88;;;4.30;99.90;;;;;;5052551;28;20018;-72
2021/12/04 01:40:27;;;;;;;4.18;3.15;;;4.20;99.90;;;;;;5044491;28;20129;-72
2021/12/04 01:42:53;;;;;;;4.07;3.30;;;4.30;99.90;;;;;;5029886;28;20025;-73
2021/12/04 01:45:19;;;;;;;3.47;2.53;;;4.30;99.90;;;;;;5039223;28;20033;-73
2021/12/04 01:47:45;;;;;;;4.10;2.15;;;4.30;99.90;;;;;;5055618;28;20396;-73
2021/12/04 01:50:11;;;;;;;4.20;2.67;;;4.30;99.90;;;;;;5055694;28;20120;-73
2021/12/04 01:52:38;;;;;;;2.80;2.47;;;4.40;99.90;;;;;;5046986;28;20501;-70
2021/12/04 01:55:04;;;;;;;2.55;2.35;;;4.30;99.90;;;;;;5037645;28;20044;-71
2021/12/04 01:57:31;;;;;;;2.40;2.10;;;4.30;99.90;;;;;;5042154;28;20087;-71
2021/12/04 01:59:57;;;;;;;3.47;2.63;;;4.30;99.90;;;;;;5039429;28;20112;-70
2021/12/04 02:02:23;;;;;;;3.05;2.30;;;4.20;99.90;;;;;;5035603;28;20049;-71
2021/12/04 02:04:49;;;;;;;4.20;2.17;;;4.20;99.90;;;;;;5036389;28;20059;-71
2021/12/04 02:07:16;;;;;;;2.35;2.15;;;4.20;99.90;;;;;;5054635;28;20550;-72
2021/12/04 02:09:42;;;;;;;2.47;1.85;;;4.10;99.90;;;;;;5055849;28;20071;-70
2021/12/04 02:12:09;;;;;;;3.63;2.30;;;4.00;99.90;;;;;;5042550;28;20492;-71
2021/12/04 02:14:37;;;;;;;2.20;2.00;;;4.10;99.90;;;;;;5034727;28;20485;-71
2021/12/04 02:17:03;;;;;;;4.32;2.38;;;4.00;99.90;;;;;;5051747;28;20056;-72
2021/12/04 02:19:29;;;;;;;2.72;2.33;;;4.00;99.90;;;;;;5054341;28;20060;-70
2021/12/04 02:21:55;;;;;;;2.88;2.55;;;4.00;99.90;;;;;;5035857;28;20025;-70
2021/12/04 02:24:21;;;;;;;3.13;2.05;;;4.00;99.90;;;;;;5054694;28;20029;-71
2021/12/04 02:26:47;;;;;;;2.58;1.67;;;3.90;99.90;;;;;;5036657;28;20025;-70
2021/12/04 02:29:14;;;;;;;2.03;1.65;;;4.00;99.90;;;;;;5039686;28;20064;-71
2021/12/04 02:31:55;;;;;;;2.47;2.10;;;3.90;99.90;;;;;;5058788;28;20025;-72
2021/12/04 02:34:30;;;;;;;5.30;3.13;;;4.00;99.90;;;;;;5039903;28;20104;-72
2021/12/04 02:36:57;;;;;;;4.45;2.42;;;3.90;99.90;;;;;;5059073;28;20033;-72
2021/12/04 02:39:27;;;;;;;2.97;2.67;;;3.80;99.90;;;;;;5056042;28;20434;-71
2021/12/04 02:41:53;;;;;;;3.13;2.65;;;3.80;99.90;;;;;;5054754;28;20021;-71
2021/12/04 02:44:19;;;;;;;3.97;2.63;;;3.70;99.90;;;;;;5054383;28;20036;-70
2021/12/04 02:46:45;;;;;;;3.50;2.80;;;3.70;99.90;;;;;;5054265;28;20025;-71
2021/12/04 02:49:14;;;;;;;3.50;2.40;;;3.70;99.90;;;;;;5055915;28;20051;-71
2021/12/04 02:51:40;;;;;;;3.53;2.95;;;3.70;99.90;;;;;;5049361;28;20036;-71
2021/12/04 02:54:07;;;;;;;2.65;2.45;;;3.70;99.90;;;;;;5064931;28;20028;-71
2021/12/04 02:56:33;;;;;;;3.70;3.08;;;3.70;99.90;;;;;;5054068;28;20108;-70
2021/12/04 02:59:03;;;;;;;4.10;2.80;;;3.70;99.90;;;;;;5053862;28;20105;-69
2021/12/04 03:01:29;;;;;;;5.10;3.03;;;3.80;99.90;;;;;;5054222;28;20485;-69
2021/12/04 03:04:09;;;;;;;3.10;2.60;;;4.00;99.90;;;;;;5054195;28;20017;-71
2021/12/04 03:06:45;;;;;;;4.22;3.25;;;3.80;99.90;;;;;;5053976;28;20120;-71
2021/12/04 03:09:12;;;;;;;4.15;3.38;;;3.90;99.90;;;;;;5053769;28;20029;-72
2021/12/04 03:11:38;;;;;;;4.97;3.83;;;3.90;99.90;;;;;;5053670;28;20535;-72
2021/12/04 03:14:04;;;;;;;5.60;3.78;;;3.70;99.90;;;;;;5053523;28;20029;-71
2021/12/04 03:16:31;;;;;;;4.78;3.85;;;3.60;99.90;;;;;;5053821;28;20081;-71
2021/12/04 03:18:56;;;;;;;3.65;3.35;;;3.60;99.90;;;;;;5053464;28;20606;-71
2021/12/04 03:21:22;;;;;;;4.95;3.70;;;3.50;99.90;;;;;;5053369;28;20024;-71
2021/12/04 03:24:00;;;;;;;4.78;4.28;;;3.60;99.90;;;;;;5053671;28;20104;-71
2021/12/04 03:26:26;;;;;;;3.92;3.60;;;3.70;99.90;;;;;;5055216;28;20089;-71
2021/12/04 03:28:53;;;;;;;4.50;4.00;;;3.90;99.90;;;;;;5056023;28;20171;-71
2021/12/04 03:31:43;;;;;;;4.88;4.38;;;3.80;99.90;;;;;;5037266;28;20048;-70
2021/12/04 03:42:22;;;;;;;4.57;4.10;;;3.50;99.90;;;;;;5053817;28;20416;-71
2021/12/04 03:44:49;;;;;;;5.28;4.78;;;3.50;99.90;;;;;;5053392;28;20041;-71
2021/12/04 03:47:15;;;;;;;5.22;4.72;;;3.50;99.90;;;;;;5053436;28;20028;-70
2021/12/04 03:49:40;;;;;;;5.82;5.13;;;3.50;99.90;;;;;;5053175;28;20029;-71
2021/12/04 03:52:07;;;;;;;5.78;5.18;;;3.50;99.90;;;;;;5053075;28;20096;-72
2021/12/04 03:54:33;;;;;;;5.07;4.43;;;3.50;99.90;;;;;;5053824;28;20025;-70
2021/12/04 03:57:04;;;;;;;6.13;5.22;;;3.70;99.90;;;;;;5057896;28;20044;-72
2021/12/04 03:59:31;;;;;;;7.38;5.18;;;3.70;99.90;;;;;;5068953;28;20469;-69
2021/12/04 04:01:56;;;;;;;6.32;5.38;;;3.60;99.90;;;;;;5057494;28;20392;-70
2021/12/04 04:04:22;;;;;;;6.32;5.72;;;3.60;99.90;;;;;;5053269;28;20071;-70
2021/12/04 04:06:48;;;;;;;8.65;6.05;;;3.50;99.90;;;;;;5045830;28;20084;-71
2021/12/04 04:09:13;;;;;;;8.15;5.85;;;3.60;99.90;;;;;;5032750;28;20021;-71
2021/12/04 04:11:39;;;;;;;7.60;6.03;;;3.60;99.90;;;;;;5032522;28;20370;-72
2021/12/04 04:14:05;;;;;;;9.60;6.80;;;3.50;99.90;;;;;;5032589;28;20025;-71
2021/12/04 04:16:31;;;;;;;7.55;6.18;;;3.50;99.90;;;;;;5032413;28;20030;-71
2021/12/04 04:18:56;;;;;;;8.15;5.90;;;3.50;99.90;;;;;;5032044;28;20084;-71
2021/12/04 04:21:22;;;;;;;7.10;6.25;;;3.50;99.90;;;;;;5032420;28;20026;-71
2021/12/04 04:23:48;;;;;;;7.78;6.90;;;3.50;99.90;;;;;;5032070;28;20100;-71
2021/12/04 04:26:13;;;;;;;8.23;6.82;;;3.40;99.90;;;;;;5049375;28;20159;-71
2021/12/04 04:28:39;;;;;;;6.70;5.85;;;3.40;99.90;;;;;;5051740;28;20495;-71
2021/12/04 04:31:05;;;;;;;7.78;6.53;;;3.50;99.90;;;;;;5034346;23;20042;-75
2021/12/04 04:33:36;;;;;;;6.28;5.03;;;3.70;99.90;;;;;;5014031;28;20022;-74
2021/12/04 04:36:56;;;;;;;8.43;5.78;;;3.80;99.90;;;;;;5012895;28;20045;-76
2021/12/04 04:58:18;;;;;;;9.75;6.18;;;3.80;99.90;;;;;;5043603;28;20121;-74
2021/12/04 05:01:11;;;;;;;9.13;6.07;;;3.60;99.90;;;;;;5045333;28;20025;-75
2021/12/04 05:12:11;;;;;;;6.40;5.57;;;3.50;99.90;;;;;;5039698;28;20036;-75
2021/12/04 05:14:40;;;;;;;7.00;5.15;;;3.60;99.90;;;;;;5038577;28;20587;-74
2021/12/04 05:17:11;;;;;;;5.93;5.40;;;3.70;99.90;;;;;;5038757;28;20030;-75
2021/12/04 05:19:39;;;;;;;;;;;3.60;99.90;;;;;;5037607;28;20380;-74
2021/12/04 05:22:06;;;;;;;8.90;7.32;;;3.60;99.90;;;;;;5039066;28;19959;-74
2021/12/04 05:24:32;;;;;;;8.60;6.22;;;3.60;99.90;;;;;;5038932;28;20024;-75
2021/12/04 05:26:58;;;;;;;8.80;5.35;;;3.60;99.90;;;;;;5039570;28;20021;-75
2021/12/04 05:29:24;;;;;;;8.43;6.05;;;3.70;99.90;;;;;;5037484;28;20047;-75
2021/12/04 05:31:49;;;;;;;6.28;5.57;;;3.80;99.90;;;;;;5039262;28;20540;-75
2021/12/04 05:34:15;;;;;;;7.28;5.03;;;3.70;99.90;;;;;;5039451;28;20047;-75
2021/12/04 05:36:41;;;;;;;5.65;5.03;;;3.70;99.90;;;;;;5040704;28;20029;-73
2021/12/04 05:39:07;;;;;;;6.20;5.60;;;3.70;99.90;;;;;;5049075;28;20052;-74
2021/12/04 05:41:33;;;;;;;5.93;5.32;;;3.80;99.90;;;;;;5054847;28;20028;-75
2021/12/04 05:44:04;;;;;;;7.18;5.57;;;3.90;99.90;;;;;;5047946;28;20018;-73
2021/12/04 05:46:35;;;;;;;5.78;5.15;;;3.80;99.90;;;;;;5062009;28;20018;-72
2021/12/04 05:49:05;;;;;;;5.82;5.18;;;3.90;99.90;;;;;;5063359;28;20013;-71
2021/12/04 05:54:31;;;;;;;5.30;4.80;;;3.80;99.90;;;;;;5041283;28;20044;-74
2021/12/04 05:56:58;;;;;;;6.97;5.05;;;3.90;99.90;;;;;;5034622;28;20033;-74
2021/12/04 05:59:24;;;;;;;5.93;4.78;;;4.00;99.90;;;;;;5036129;28;20406;-74
2021/12/04 06:01:49;;;;;;;5.43;4.53;;;4.20;99.90;;;;;;5021726;28;20018;-74
2021/12/04 06:04:15;;;;;;;4.55;4.15;;;4.30;99.90;;;;;;5014593;28;20026;-73
2021/12/04 06:06:43;;;;;;;4.78;4.28;;;4.40;99.90;;;;;;5014045;28;20036;-73
2021/12/04 06:09:09;;;;;;;4.63;4.18;;;4.30;99.90;;;;;;5014064;28;20026;-75
2021/12/04 06:11:34;;;;;;;6.03;4.10;;;4.20;99.90;;;;;;5015652;28;20033;-74
2021/12/04 06:14:00;;;;;;;6.93;4.00;;;4.10;99.90;;;;;;5015513;28;20375;-75
2021/12/04 06:16:26;;;;;;;4.85;4.20;;;4.10;99.90;;;;;;5015225;28;20022;-75
2021/12/04 06:18:53;;;;;;;4.97;4.30;;;4.00;99.90;;;;;;5015258;28;20120;-75
2021/12/04 06:24:13;;;;;;;4.75;3.90;;;4.00;99.90;;;;;;4992156;28;20022;-74
2021/12/04 06:26:38;;;;;;;5.85;4.78;;;4.00;99.90;;;;;;5014240;28;20524;-74
2021/12/04 06:29:04;;;;;;;4.45;3.92;;;4.00;99.90;;;;;;5015111;28;20482;-75
2021/12/04 06:31:31;;;;;;;5.25;4.75;;;4.00;99.90;;;;;;5015867;28;20494;-75
2021/12/04 06:33:57;;;;;;;4.40;3.97;;;4.20;99.90;;;;;;5014443;28;20116;-74
2021/12/04 06:36:24;;;;;;;3.90;3.60;;;4.40;99.90;;;;;;5014943;28;20061;-75
2021/12/04 06:38:51;;;;;;;7.40;4.25;;;4.60;99.90;;;;;;5014664;28;20029;-75
2021/12/04 06:41:17;;;;;;;6.43;4.10;;;4.70;99.90;;;;;;5013673;28;20026;-74
2021/12/04 06:43:47;;;;;;;4.30;3.90;;;4.50;99.90;;;;;;5014824;28;20018;-75
2021/12/04 06:46:16;;;;;;;4.85;4.15;;;4.40;99.90;;;;;;5015323;28;20028;-74
2021/12/04 06:48:46;;;;;;;5.13;4.25;;;4.40;99.90;;;;;;5015331;28;20025;-75
2021/12/04 06:51:25;;;;;;;3.55;3.25;;;4.50;99.90;;;;;;5013751;28;20030;-73
2021/12/04 06:54:05;;;;;;;3.75;3.45;;;4.60;99.90;;;;;;5015816;28;20367;-73
2021/12/04 06:56:33;;;;;;;4.72;4.15;;;4.50;99.90;;;;;;5014628;28;20018;-75
2021/12/04 06:59:02;;;;;;;4.88;4.03;;;4.60;99.90;;;;;;5014048;28;20393;-74
2021/12/04 07:01:28;;;;;;;6.65;3.50;;;4.60;99.90;;;;;;5014534;28;20050;-74
2021/12/04 07:03:53;;;;;;;6.97;4.13;;;4.50;99.90;;;;;;5015251;28;20030;-74
2021/12/04 07:06:19;;;;;;;4.20;2.90;;;4.40;99.90;;;;;;5014763;28;20029;-74
2021/12/04 07:08:44;;;;;;;3.95;3.17;;;4.70;99.90;;;;;;5014333;28;20057;-75
2021/12/04 07:11:10;;;;;;;4.47;3.80;;;4.60;99.90;;;;;;5014711;28;20378;-75
2021/12/04 07:13:36;;;;;;;4.53;3.35;;;4.50;99.90;;;;;;5014553;28;20101;-74
2021/12/04 07:16:06;;;;;;;4.75;3.40;;;4.50;99.90;;;;;;5014315;28;20026;-75
2021/12/04 07:18:33;;;;;;;5.20;3.72;;;4.70;99.90;;;;;;5014098;28;20394;-73
2021/12/04 07:20:59;;;;;;;6.20;4.47;;;4.80;99.90;;;;;;5029790;28;20022;-74
2021/12/04 07:23:24;;;;;;;6.47;4.13;;;4.80;99.90;;;;;;5035041;28;20029;-73
2021/12/04 07:25:50;;;;;;;5.57;5.07;;;4.90;99.90;;;;;;5043306;28;20048;-73
2021/12/04 07:28:16;;;;;;;7.72;4.50;;;4.90;99.90;;;;;;5044319;28;20037;-75
2021/12/04 07:30:42;;;;;;;5.22;4.70;;;4.90;99.90;;;;;;5033034;28;20040;-75
2021/12/04 07:33:07;;;;;;;7.93;4.82;;;4.80;99.90;;;;;;5032500;28;20448;-73
2021/12/04 07:35:33;;;;;;;4.72;3.63;;;4.80;99.90;;;;;;5033048;28;20095;-73
2021/12/04 07:38:00;;;;;;;8.18;4.82;;;4.80;99.90;;;;;;5032730;28;20043;-73
2021/12/04 07:40:26;;;;;;;5.97;4.18;;;4.90;99.90;;;;;;5032568;28;20523;-75
2021/12/04 07:42:52;;;;;;;5.90;4.25;;;4.80;99.90;;;;;;5031980;28;20033;-75
2021/12/04 07:45:18;;;;;;;5.30;3.97;;;4.90;99.90;;;;;;5032806;28;20527;-73
2021/12/04 07:47:46;;;;;;;7.88;4.57;;;4.90;99.90;;;;;;5033241;28;20034;-74
2021/12/04 07:50:14;;;;;;;9.30;6.43;;;4.90;99.90;;;;;;5031555;28;20025;-75
2021/12/04 07:52:40;;;;;;;4.57;3.53;;;4.90;99.90;;;;;;5012077;28;20037;-76
2021/12/04 07:55:08;;;;;;;4.82;3.88;;;4.90;99.90;;;;;;5012713;28;20030;-75
2021/12/04 07:57:34;;;;;;;6.28;3.80;;;5.00;99.90;;;;;;5013265;28;20025;-74
2021/12/04 08:00:00;;;;;;;3.70;3.30;;;5.00;99.90;;;;;;5013233;28;20030;-74
2021/12/04 08:02:26;;;;;;;5.68;4.03;;;5.20;99.90;;;;;;5013896;28;20079;-73
2021/12/04 08:04:51;;;;;;;9.27;4.78;;;5.20;99.90;;;;;;5013896;28;20053;-74
2021/12/04 08:07:17;;;;;;;8.68;3.83;;;5.40;99.90;;;;;;5014025;28;20030;-75
2021/12/04 08:09:43;;;;;;;5.43;3.85;;;5.40;99.90;;;;;;5017333;28;20033;-74
2021/12/04 08:12:10;;;;;;;5.57;3.90;;;5.30;99.90;;;;;;5015244;28;20544;-75
2021/12/04 08:14:36;;;;;;;7.22;4.68;;;5.40;99.90;;;;;;5015369;28;20086;-75
2021/12/04 08:17:02;;;;;;;9.90;4.40;;;5.40;99.90;;;;;;5013068;28;20470;-75
2021/12/04 08:19:28;;;;;;;6.53;4.80;;;5.40;99.90;;;;;;5019531;28;20028;-73
2021/12/04 08:21:53;;;;;;;4.88;4.35;;;5.30;99.90;;;;;;5031776;28;20037;-74
2021/12/04 08:24:19;;;;;;;8.38;3.95;;;5.30;99.90;;;;;;5032531;28;20560;-74
2021/12/04 08:26:46;;;;;;;6.07;4.22;;;5.30;99.90;;;;;;5032803;28;20508;-74
2021/12/04 08:29:13;;;;;;;6.65;4.03;;;5.30;99.90;;;;;;4995505;28;1059201;-74
2021/12/04 08:31:39;;;;;;;4.38;3.97;;;5.30;99.90;;;;;;5033378;28;20091;-73
2021/12/04 08:34:04;;;;;;;3.63;2.88;;;5.40;99.90;;;;;;5033463;28;20065;-75
2021/12/04 08:36:32;;;;;;;4.22;3.33;;;5.70;99.90;;;;;;5028379;28;20444;-73
2021/12/04 08:38:59;;;;;;;6.18;4.90;;;5.60;99.90;;;;;;5032828;28;20084;-73
2021/12/04 08:41:25;;;;;;;5.00;3.28;;;5.60;99.90;;;;;;5033549;28;20021;-74
2021/12/04 08:43:54;;;;;;;4.20;3.45;;;5.60;99.90;;;;;;5021557;28;20659;-75
2021/12/04 08:46:20;;;;;;;3.33;2.55;;;5.70;99.90;;;;;;5037363;28;20006;-75
2021/12/04 08:48:48;;;;;;;2.80;2.20;;;5.80;99.90;;;;;;5037982;28;20029;-76
2021/12/04 08:51:16;;;;;;;3.10;2.60;;;5.80;99.90;;;;;;5030735;28;20030;-75
2021/12/04 08:53:42;;;;;;;4.45;3.17;;;5.90;99.90;;;;;;5032764;28;20389;-75
2021/12/04 08:56:07;;;;;;;2.58;2.22;;;6.00;99.90;;;;;;5024789;28;20036;-76
2021/12/04 08:58:36;;;;;;;2.60;2.40;;;6.10;99.90;;;;;;5031806;28;20026;-75
2021/12/04 09:01:05;;;;;;;4.10;2.42;;;6.10;99.90;;;;;;5032906;28;20015;-75
2021/12/04 09:03:35;;;;;;;3.08;1.88;;;6.10;99.90;;;;;;5047977;28;20073;-75
2021/12/04 09:06:01;;;;;;;3.25;2.22;;;6.30;99.90;;;;;;5054214;28;20034;-74
2021/12/04 09:08:29;;;;;;;2.13;1.92;;;6.40;99.90;;;;;;5053908;28;20017;-75
2021/12/04 09:10:57;;;;;;;4.35;2.58;;;6.40;99.90;;;;;;5042611;28;20077;-77
2021/12/04 09:13:24;;;;;;;4.93;2.63;;;6.60;99.90;;;;;;5033337;28;20018;-75
2021/12/04 09:15:50;;;;;;;3.90;1.98;;;6.50;99.90;;;;;;5047450;28;20281;-77
2021/12/04 09:18:16;;;;;;;2.90;2.15;;;6.70;99.90;;;;;;5044707;28;20037;-77
2021/12/04 09:20:42;;;;;;;3.85;2.33;;;6.70;99.90;;;;;;5043193;28;20484;-76
2021/12/04 09:23:15;;;;;;;3.03;2.38;;;6.70;99.90;;;;;;5031416;28;20100;-76
2021/12/04 09:25:47;;;;;;;6.32;2.17;;;6.80;99.90;;;;;;5029671;28;20025;-76
2021/12/04 09:28:18;;;;;;;3.45;1.70;;;6.80;99.90;;;;;;5024242;28;20017;-77
2021/12/04 10:03:07;;;;;;;2.88;2.30;;;7.20;99.90;;;;;;5030105;28;20052;-74
2021/12/04 10:05:54;;;;;;;2.78;1.88;;;7.30;99.90;;;;;;5023612;28;20021;-75
2021/12/04 10:14:33;;;;;;;3.78;2.10;;;7.40;99.90;;;;;;5033659;28;20116;-76
2021/12/04 10:22:38;;;;;;;2.22;1.92;;;7.80;99.90;;;;;;5035789;28;20551;-75
2021/12/04 10:33:41;;;;;;;5.28;2.08;;;7.90;99.90;;;;;;5041812;28;20029;-76
2021/12/04 10:36:07;;;;;;;2.58;1.45;;;8.40;99.90;;;;;;5045945;28;20496;-77
2021/12/04 10:38:40;;;;;;;3.63;2.33;;;8.60;99.90;;;;;;5052637;28;20459;-79
2021/12/04 10:41:07;;;;;;;4.45;1.70;;;8.70;99.90;;;;;;5027839;28;20032;-77
2021/12/04 10:43:32;;;;;;;3.40;2.03;;;8.50;99.90;;;;;;5021904;28;20018;-76
2021/12/04 10:46:10;;;;;;;2.13;1.90;;;8.50;99.90;;;;;;5045687;28;20022;-75
2021/12/04 10:48:43;;;;;;;2.40;2.05;;;8.50;99.90;;;;;;5045627;28;20708;-75
2021/12/04 10:51:33;;;;;;;2.03;1.83;;;8.50;99.90;;;;;;5049939;28;20500;-78
2021/12/04 10:54:16;;;;;;;5.55;2.22;;;8.70;99.90;;;;;;5044988;28;20087;-74
2021/12/04 11:04:48;;;;;;;8.18;3.67;;;9.20;99.90;;;;;;5035993;28;20152;-75
2021/12/04 11:21:38;;;;;;;1.35;1.10;;;9.40;99.90;;;;;;5037610;28;20026;-76
2021/12/04 11:26:56;;;;;;;0.88;0.70;;;9.50;99.90;;;;;;5043337;28;20028;-76
2021/12/04 11:42:48;;;;;;;0.60;0.60;;;10.00;99.90;;;;;;5047849;28;20074;-76
2021/12/04 11:45:21;;;;;;;0.93;0.60;;;10.30;99.90;;;;;;5035611;28;20021;-75
2021/12/04 11:47:53;;;;;;;1.00;0.50;;;10.30;99.90;;;;;;5043175;28;20070;-75
2021/12/04 11:50:24;;;;;;;1.05;0.50;;;10.30;99.90;;;;;;5028194;28;20436;-74
2021/12/04 11:52:51;;;;;;;;;;;10.20;99.90;;;;;;5042540;28;20029;-73
2021/12/04 11:55:19;;;;;;;3.70;1.30;;;10.10;99.90;;;;;;5021679;28;19912;-73
2021/12/04 11:57:45;;;;;;;1.27;1.10;;;10.10;99.90;;;;;;5042069;28;20025;-73
2021/12/04 12:00:25;;;;;;;0.85;0.80;;;10.20;99.90;;;;;;5048740;28;20047;-74
2021/12/04 12:03:15;;;;;;;1.42;0.57;;;10.10;99.90;;;;;;5042173;28;20048;-70
2021/12/04 12:05:43;;;;;;;1.13;0.80;;;10.10;99.90;;;;;;5044955;28;20041;-74
2021/12/04 12:08:23;;;;;;;0.50;0.50;;;10.10;99.90;;;;;;5037297;28;20025;-77
2021/12/04 12:10:52;;;;;;;1.40;0.73;;;10.20;99.90;;;;;;5028428;28;20067;-74
2021/12/04 12:13:26;;;;;;;0.30;0.30;;;10.30;99.90;;;;;;5029133;28;20083;-75
2021/12/04 12:16:02;;;;;;;0.73;0.60;;;10.40;99.90;;;;;;5032679;28;20457;-75
2021/12/04 12:18:28;;;;;;;0.60;0.50;;;10.50;99.90;;;;;;5039593;28;20030;-75
2021/12/04 12:21:01;;;;;;;0.50;0.32;;;10.50;99.90;;;;;;5037235;28;20091;-75
2021/12/04 12:23:30;;;;;;;0.73;0.60;;;10.40;99.90;;;;;;5034644;28;20040;-76
2021/12/04 12:32:02;;;;;;;0.73;0.50;;;10.40;99.90;;;;;;5033487;28;20098;-75
2021/12/04 12:37:25;;;;;;;0.70;0.52;;;10.30;99.90;;;;;;5038988;28;20397;-75
2021/12/04 12:40:08;;;;;;;0.50;0.40;;;10.50;99.90;;;;;;5025519;28;20022;-74
2021/12/04 12:42:37;;;;;;;0.55;0.50;;;10.50;99.90;;;;;;5033440;28;20080;-74
2021/12/04 12:45:24;;;;;;;1.42;0.50;;;10.50;99.90;;;;;;5046443;28;20343;-76
2021/12/04 12:47:59;;;;;;;2.75;0.60;;;10.60;99.90;;;;;;5041041;28;20017;-77
2021/12/04 12:50:43;;;;;;;0.63;0.52;;;10.50;99.90;;;;;;5009794;28;20022;-78
2021/12/04 12:53:28;;;;;;;0.50;0.40;;;10.50;99.90;;;;;;5037649;28;20017;-77
2021/12/04 12:56:08;;;;;;;0.60;0.50;;;10.30;99.90;;;;;;5030378;28;20545;-76
2021/12/04 12:59:32;;;;;;;1.52;0.85;;;10.50;99.90;;;;;;5030378;28;20408;-78
2021/12/04 13:13:29;;;;;;;1.65;0.80;;;10.60;99.90;;;;;;5049137;28;20121;-77
2021/12/04 13:16:01;;;;;;;1.70;0.70;;;10.60;99.90;;;;;;5041875;28;20037;-75
2021/12/04 13:18:27;;;;;;;0.68;0.50;;;10.60;99.90;;;;;;5037638;28;20490;-77
2021/12/04 13:21:01;;;;;;;0.60;0.60;;;10.40;99.90;;;;;;5042031;28;20108;-74
2021/12/04 13:23:26;;;;;;;1.10;0.60;;;10.30;99.90;;;;;;5044177;28;20022;-75
2021/12/04 13:25:59;;;;;;;1.98;0.60;;;10.20;99.90;;;;;;5040586;28;20036;-76
2021/12/04 13:28:29;;;;;;;0.70;0.68;;;10.30;99.90;;;;;;5024479;28;20097;-76
2021/12/04 13:30:55;;;;;;;0.90;0.80;;;10.20;99.90;;;;;;5020369;28;20362;-78
2021/12/04 13:33:22;;;;;;;3.67;0.80;;;10.10;99.90;;;;;;5046048;28;20032;-77
2021/12/04 13:35:48;;;;;;;1.20;0.82;;;10.10;99.90;;;;;;5046176;28;20045;-77
2021/12/04 13:38:15;;;;;;;1.60;0.90;;;10.10;99.90;;;;;;5032365;28;20082;-76
2021/12/04 13:40:43;;;;;;;1.10;0.80;;;10.00;99.90;;;;;;5039081;28;20030;-77
2021/12/04 13:43:13;;;;;;;1.80;0.80;;;10.10;99.90;;;;;;5043327;28;20018;-76
2021/12/04 13:45:41;;;;;;;1.02;0.60;;;10.20;99.90;;;;;;5035130;28;20044;-79
2021/12/04 13:48:08;;;;;;;1.00;0.70;;;10.10;99.90;;;;;;5033416;28;20025;-78
2021/12/04 13:53:15;;;;;;;1.90;0.93;;;10.00;99.90;;;;;;5039987;28;20021;-77
2021/12/04 13:55:44;;;;;;;1.08;0.75;;;10.00;99.90;;;;;;5038351;28;20045;-77
2021/12/04 13:58:10;;;;;;;2.17;1.42;;;10.00;99.90;;;;;;5034166;28;20029;-78
2021/12/04 14:00:36;;;;;;;1.35;0.98;;;9.90;99.90;;;;;;5022125;28;20072;-77
2021/12/04 14:03:03;;;;;;;2.05;0.88;;;9.90;99.90;;;;;;5044601;28;20031;-77
2021/12/04 14:05:29;;;;;;;1.23;0.60;;;9.80;99.90;;;;;;5049173;28;20401;-78
2021/12/04 14:08:05;;;;;;;0.90;0.70;;;9.90;99.90;;;;;;5041808;28;20048;-77
2021/12/04 14:10:37;;;;;;;2.15;0.85;;;9.70;99.90;;;;;;5048023;28;20013;-79
2021/12/04 14:13:04;;;;;;;0.82;0.73;;;9.70;99.90;;;;;;5042375;28;20029;-76
2021/12/04 14:15:30;;;;;;;1.63;0.55;;;9.70;99.90;;;;;;5038303;28;20438;-75
2021/12/04 14:18:08;;;;;;;0.85;0.80;;;9.70;99.90;;;;;;5048817;28;20024;-75
2021/12/04 14:20:35;;;;;;;2.00;0.60;;;9.70;99.90;;;;;;5035394;28;20021;-75
2021/12/04 14:23:02;;;;;;;0.60;0.60;;;9.70;99.90;;;;;;5030628;28;20079;-75
2021/12/04 14:25:28;;;;;;;1.17;0.80;;;9.70;99.90;;;;;;5047582;28;20013;-77
2021/12/04 14:27:56;;;;;;;2.58;1.27;;;9.60;99.90;;;;;;5024782;28;20029;-75
2021/12/04 14:30:32;;;;;;;2.22;0.98;;;9.50;99.90;;;;;;5020258;28;20068;-77
2021/12/04 14:32:58;;;;;;;0.60;0.60;;;9.60;99.90;;;;;;4999907;28;20049;-77
2021/12/04 14:35:28;;;;;;;0.95;0.90;;;9.50;99.90;;;;;;5014394;28;20489;-75
2021/12/04 14:37:57;;;;;;;1.30;0.93;;;9.50;99.90;;;;;;5019973;28;20042;-77
2021/12/04 14:40:27;;;;;;;1.35;0.93;;;9.40;99.90;;;;;;5040066;28;20052;-74
2021/12/04 14:42:54;;;;;;;1.30;1.00;;;9.60;99.90;;;;;;5041796;28;20018;-77
2021/12/04 14:45:23;;;;;;;1.42;1.20;;;9.50;99.90;;;;;;5018112;28;20036;-74
2021/12/04 14:47:55;;;;;;;1.83;1.00;;;9.70;99.90;;;;;;5020893;28;20056;-74
2021/12/04 14:50:21;;;;;;;2.50;1.30;;;9.50;99.90;;;;;;5044138;28;20028;-76
2021/12/04 14:52:53;;;;;;;1.50;1.05;;;9.50;99.90;;;;;;5037867;28;20029;-77
2021/12/04 14:55:25;;;;;;;1.23;0.85;;;9.50;99.90;;;;;;5011982;28;20113;-76
2021/12/04 14:57:51;;;;;;;1.40;0.90;;;9.40;99.90;;;;;;5016589;28;20049;-74
2021/12/04 15:00:25;;;;;;;1.27;1.15;;;9.30;99.90;;;;;;5048145;28;20029;-76
2021/12/04 15:02:57;;;;;;;2.85;1.90;;;9.30;99.90;;;;;;5042210;28;20106;-76
2021/12/04 15:05:47;;;;;;;1.25;1.13;;;9.40;99.90;;;;;;5044486;28;20045;-75
2021/12/04 15:08:20;;;;;;;1.58;1.25;;;9.30;99.90;;;;;;5031215;28;20493;-76
2021/12/04 15:11:03;;;;;;;0.73;0.73;;;9.30;99.90;;;;;;5038626;28;20052;-77
2021/12/04 15:13:35;;;;;;;2.03;0.80;;;9.30;99.90;;;;;;5038942;28;20101;-78
2021/12/04 15:16:07;;;;;;;1.40;0.80;;;9.30;99.90;;;;;;5039109;28;20029;-77
2021/12/04 15:18:36;;;;;;;1.75;1.27;;;9.30;99.90;;;;;;5036580;28;20079;-74
2021/12/04 15:21:10;;;;;;;1.10;1.00;;;9.30;99.90;;;;;;5013831;28;20075;-73
2021/12/04 15:23:39;;;;;;;1.23;0.90;;;9.20;99.90;;;;;;5025907;28;20079;-73
2021/12/04 15:26:15;;;;;;;1.92;1.15;;;9.20;99.90;;;;;;5048596;28;20017;-72
2021/12/04 15:28:53;;;;;;;1.13;0.77;;;9.10;99.90;;;;;;5029782;28;20036;-73
2021/12/04 15:31:21;;;;;;;0.90;0.77;;;9.10;99.90;;;;;;5041961;28;20052;-73
2021/12/04 15:33:50;;;;;;;1.05;0.98;;;9.10;99.90;;;;;;5028172;28;20022;-73
2021/12/04 15:36:23;;;;;;;1.50;1.00;;;9.00;99.90;;;;;;5034120;28;20025;-74
2021/12/04 15:38:52;;;;;;;1.00;0.90;;;9.10;99.90;;;;;;5048364;28;20014;-72
2021/12/04 15:41:57;;;;;;;1.00;0.80;;;9.20;99.90;;;;;;5039664;28;20466;-73
2021/12/04 15:44:39;;;;;;;3.55;1.35;;;9.20;99.90;;;;;;5034164;28;20126;-73
2021/12/04 15:54:59;;;;;;;3.17;1.33;;;9.20;99.90;;;;;;5023268;28;20040;-75
2021/12/04 15:57:25;;;;;;;1.20;1.10;;;9.20;99.90;;;;;;5016925;28;20033;-72
2021/12/04 15:59:52;;;;;;;2.13;1.40;;;9.10;99.90;;;;;;5034125;28;20066;-73